METAR AND TAF INFORMATION
METAR FOR EHWO
ADDS - METARS form results

(0954 UTC 25 January 2021)
Data provider http://aviationweather.gov/metar/data/
 
METAR text: EHWO 250950Z AUTO VRB02KT 8000 BR NCD 02/01 Q1005 BLU NOSIG
Conditions at: EHWO (WOENSDRECHT RNLA, NL) observed 0950 UTC 25 January 2021
Temperature: 2.0°C (36°F)
Dewpoint: 1.0°C (34°F) [RH = 93%]
Pressure (altimeter): 29.68 inches Hg (1005.0 mb)
Winds: variable direction winds at 2 MPH (2 knots; 1.0 m/s)
Visibility: 5 miles ( 8 km)
Ceiling: at least 12,000 feet AGL
Clouds: sky clear below 12,000 feet AGL
Weather: BR  (mist)

METAR text: EHWO 250925Z AUTO 34003KT 270V020 5000 BR NCD 01/01 Q1004 WHT BECMG 27005KT 7000 NSW
Conditions at: EHWO (WOENSDRECHT RNLA, NL) observed 0925 UTC 25 January 2021
Temperature: 1.0°C (34°F)
Dewpoint: 1.0°C (34°F) [RH = 100%]
Pressure (altimeter): 29.65 inches Hg (1004.0 mb)
Winds: from the NNW (340 degrees) at 3 MPH (3 knots; 1.5 m/s)
Visibility: 3 miles ( 5 km)
Ceiling: at least 12,000 feet AGL
Clouds: sky clear below 12,000 feet AGL
Weather: BR  (mist)

METAR text: EHWO 250855Z AUTO VRB02KT 3700 BR NCD 00/M00 Q1004 GRN BECMG 27005KT 7000 NSW
Conditions at: EHWO (WOENSDRECHT RNLA, NL) observed 0855 UTC 25 January 2021
Temperature: 0.0°C (32°F)
Dewpoint: 0.0°C (32°F) [RH = 100%]
Pressure (altimeter): 29.65 inches Hg (1004.0 mb)
Winds: variable direction winds at 2 MPH (2 knots; 1.0 m/s)
Visibility: 2.30 miles (3.70 km)
Ceiling: at least 12,000 feet AGL
Clouds: sky clear below 12,000 feet AGL
Weather: BR  (mist)

 AIRPORT MAP

 RUNWAY INFORMATION
Runway 07 Runway length 7996 ft Runway width 148 ft
Runway elevation 39 ft Runway displaced threshold 0 ft Runway heading 69
Runway 25 Runway length 7996 ft Runway width 148 ft
Runway elevation 63 ft Runway displaced threshold 0 ft Runway heading 249

 AIRPORT FREQUENCIES
Type APP Name RAPCON WES Frequency 123.575 MHZ
Type ARR Name ARRIVAL Frequency 123.575 MHZ
Type TWR Name TWR Frequency 118.5 MHZ

 AIRPORT NEAR NAVIGATION AIDS
Type TACAN Name Woensdrecht Frequency 115000 KHZ